Time;durP1;ratioP1;P1;durP2;ratioP2;P2;SDS_P1;SDS_P2;PMS_P1;PMS_P2;Temp;Humidity;BMP_temperature;BMP_pressure;BME280_temperature;BME280_humidity;BME280_pressure;Samples;Min_cycle;Max_cycle;Signal;HPM_P1;HPM_P2
2023/08/25 00:00:39;;;;;;;74.57;46.38;;;21.00;99.90;;;;;;4994440;28;20109;-72
2023/08/25 00:03:05;;;;;;;69.50;43.90;;;21.00;99.90;;;;;;4994773;28;20177;-72
2023/08/25 00:05:38;;;;;;;69.13;44.25;;;21.00;99.90;;;;;;4996186;28;20026;-72
2023/08/25 00:08:04;;;;;;;67.20;43.17;;;20.90;99.90;;;;;;4992905;28;20015;-72
2023/08/25 00:10:30;;;;;;;62.15;40.50;;;20.90;99.90;;;;;;5006157;28;20028;-72
2023/08/25 00:12:56;;;;;;;61.22;40.13;;;20.90;99.90;;;;;;4982694;28;20101;-72
2023/08/25 00:15:21;;;;;;;60.28;39.53;;;20.90;99.90;;;;;;4993963;28;20064;-72
2023/08/25 00:17:49;;;;;;;61.88;38.88;;;20.90;99.90;;;;;;4991650;28;20018;-72
2023/08/25 00:20:15;;;;;;;57.72;37.88;;;20.80;99.90;;;;;;4989805;28;20069;-72
2023/08/25 00:22:41;;;;;;;58.50;37.42;;;20.80;99.90;;;;;;4991930;28;20034;-72
2023/08/25 00:25:08;;;;;;;54.97;35.22;;;20.80;99.90;;;;;;5001228;28;20026;-72
2023/08/25 00:27:34;;;;;;;56.53;35.97;;;20.80;99.90;;;;;;4980224;28;20069;-72
2023/08/25 00:29:59;;;;;;;53.40;34.05;;;20.80;99.90;;;;;;4993490;28;20513;-72
2023/08/25 00:32:25;;;;;;;52.03;34.50;;;20.80;99.90;;;;;;5005483;28;20022;-72
2023/08/25 00:34:51;;;;;;;55.85;33.65;;;20.70;99.90;;;;;;4992726;28;20421;-72
2023/08/25 00:37:17;;;;;;;52.63;33.30;;;20.70;99.90;;;;;;4993303;28;20513;-72
2023/08/25 00:39:43;;;;;;;54.95;34.92;;;20.70;99.90;;;;;;5001810;28;20485;-72
2023/08/25 00:42:08;;;;;;;52.20;32.67;;;20.70;99.90;;;;;;4985073;28;20081;-72
2023/08/25 00:44:35;;;;;;;54.05;31.92;;;20.70;99.90;;;;;;4993665;28;20433;-72
2023/08/25 00:47:00;;;;;;;48.63;31.85;;;20.60;99.90;;;;;;4996556;28;20026;-72
2023/08/25 00:49:27;;;;;;;51.63;32.00;;;20.60;99.90;;;;;;4993343;28;20430;-73
2023/08/25 00:51:54;;;;;;;51.35;34.90;;;20.60;99.90;;;;;;4995011;28;20036;-72
2023/08/25 00:54:22;;;;;;;59.42;35.83;;;20.60;99.90;;;;;;4995785;28;20390;-72
2023/08/25 00:56:50;;;;;;;59.10;36.30;;;20.50;99.90;;;;;;5002119;28;20377;-72
2023/08/25 00:59:16;;;;;;;58.15;36.90;;;20.50;99.90;;;;;;5012087;28;21369;-72
2023/08/25 01:01:45;;;;;;;60.78;36.92;;;20.50;99.90;;;;;;5008489;28;20113;-72
2023/08/25 01:04:11;;;;;;;57.67;35.53;;;20.50;99.90;;;;;;4991113;28;20359;-72
2023/08/25 01:06:38;;;;;;;54.45;34.25;;;20.40;99.90;;;;;;4993107;28;20046;-72
2023/08/25 01:09:05;;;;;;;57.25;35.20;;;20.40;99.90;;;;;;4992843;28;20077;-72
2023/08/25 01:11:36;;;;;;;56.25;35.03;;;20.40;99.90;;;;;;4993468;28;20053;-72
2023/08/25 01:14:13;;;;;;;57.45;34.20;;;20.40;99.90;;;;;;4993353;28;20026;-72
2023/08/25 01:17:02;;;;;;;61.38;34.22;;;20.30;99.90;;;;;;4993264;28;20026;-72
2023/08/25 01:19:50;;;;;;;62.30;38.40;;;20.30;99.90;;;;;;4994087;28;20575;-72
2023/08/25 01:22:27;;;;;;;65.38;38.80;;;20.30;99.90;;;;;;4992236;28;20034;-72
2023/08/25 01:24:55;;;;;;;64.05;38.72;;;20.20;99.90;;;;;;4992626;28;20394;-72
2023/08/25 01:27:22;;;;;;;68.30;41.03;;;20.20;99.90;;;;;;4992477;28;20026;-72
2023/08/25 01:29:48;;;;;;;71.75;41.63;;;20.20;99.90;;;;;;4992799;28;20027;-72
2023/08/25 01:32:14;;;;;;;74.75;43.03;;;20.20;99.90;;;;;;5005665;28;20018;-72
2023/08/25 01:34:40;;;;;;;75.93;41.92;;;20.20;99.90;;;;;;4992370;28;20757;-72
2023/08/25 01:37:10;;;;;;;71.25;40.55;;;20.20;99.90;;;;;;4991121;28;20100;-72
2023/08/25 01:39:37;;;;;;;78.72;41.75;;;20.20;99.90;;;;;;4992445;28;20037;-72
2023/08/25 01:42:06;;;;;;;73.32;39.95;;;20.20;99.90;;;;;;4992282;28;20265;-72
2023/08/25 01:44:34;;;;;;;79.93;43.33;;;20.20;99.90;;;;;;4992636;28;20454;-72
2023/08/25 01:47:06;;;;;;;75.60;42.10;;;20.20;99.90;;;;;;4992104;28;20072;-72
2023/08/25 01:49:32;;;;;;;82.72;43.22;;;20.20;99.90;;;;;;4992015;28;20026;-72
2023/08/25 01:51:59;;;;;;;78.20;40.72;;;20.30;99.90;;;;;;4991867;28;20539;-72
2023/08/25 01:54:25;;;;;;;78.82;43.05;;;20.30;99.90;;;;;;5003844;28;20483;-72
2023/08/25 01:56:50;;;;;;;79.78;42.72;;;20.30;99.90;;;;;;4991980;28;20038;-72
2023/08/25 01:59:16;;;;;;;80.60;42.88;;;20.30;99.90;;;;;;4991436;28;20072;-72
2023/08/25 02:01:42;;;;;;;75.47;43.72;;;20.30;99.90;;;;;;4991939;28;20525;-72
2023/08/25 02:04:07;;;;;;;81.28;43.50;;;20.30;99.90;;;;;;4991773;28;20101;-72
2023/08/25 02:06:33;;;;;;;74.78;41.28;;;20.30;99.90;;;;;;4983771;28;20057;-72
2023/08/25 02:08:59;;;;;;;71.38;39.80;;;20.30;99.90;;;;;;4991924;28;20033;-72
2023/08/25 02:11:25;;;;;;;75.53;40.88;;;20.30;99.90;;;;;;4992060;28;20025;-72
2023/08/25 02:13:50;;;;;;;71.80;38.97;;;20.30;99.90;;;;;;4992311;28;20029;-72
2023/08/25 02:16:16;;;;;;;72.68;39.22;;;20.20;99.90;;;;;;4991552;28;20165;-72
2023/08/25 02:18:42;;;;;;;76.07;39.13;;;20.20;99.90;;;;;;4991938;28;20018;-72
2023/08/25 02:21:07;;;;;;;66.28;37.15;;;20.20;99.90;;;;;;4991949;28;20026;-72
2023/08/25 02:23:33;;;;;;;73.80;38.90;;;20.20;99.90;;;;;;4991977;28;20466;-72
2023/08/25 02:25:59;;;;;;;67.05;36.60;;;20.10;99.90;;;;;;4991821;28;20030;-72
2023/08/25 02:28:24;;;;;;;67.38;34.25;;;20.10;99.90;;;;;;4991681;28;20475;-72
2023/08/25 02:30:50;;;;;;;60.80;34.17;;;20.10;99.90;;;;;;4984062;28;20019;-72
2023/08/25 02:33:16;;;;;;;64.30;34.05;;;20.10;99.90;;;;;;4986374;28;20038;-73
2023/08/25 02:35:42;;;;;;;61.72;34.95;;;20.10;99.90;;;;;;4991812;28;20035;-72
2023/08/25 02:38:09;;;;;;;62.88;35.72;;;20.00;99.90;;;;;;4991294;28;20029;-73
2023/08/25 02:40:35;;;;;;;63.72;36.50;;;20.00;99.90;;;;;;4991436;28;20029;-73
2023/08/25 02:43:04;;;;;;;62.30;36.17;;;20.00;99.90;;;;;;4991485;28;20026;-72
2023/08/25 02:45:30;;;;;;;63.88;34.92;;;20.00;99.90;;;;;;4991672;28;20029;-72
2023/08/25 02:47:56;;;;;;;66.43;35.15;;;20.00;99.90;;;;;;4991396;28;20030;-72
2023/08/25 02:50:22;;;;;;;63.53;35.55;;;20.00;99.90;;;;;;4994581;28;20026;-72
2023/08/25 02:52:48;;;;;;;63.47;34.92;;;20.10;99.90;;;;;;4995103;28;20033;-72
2023/08/25 02:55:19;;;;;;;63.60;37.00;;;20.10;99.90;;;;;;4995493;28;20026;-72
2023/08/25 02:57:45;;;;;;;61.55;34.13;;;20.10;99.90;;;;;;4995053;28;20034;-72
2023/08/25 03:00:13;;;;;;;67.43;36.60;;;20.10;99.90;;;;;;4994426;28;20129;-72
2023/08/25 03:02:40;;;;;;;65.97;36.67;;;20.20;99.90;;;;;;4987453;28;20053;-72
2023/08/25 03:05:06;;;;;;;66.85;36.92;;;20.20;99.90;;;;;;4994607;28;20035;-72
2023/08/25 03:07:33;;;;;;;69.93;38.30;;;20.20;99.90;;;;;;4994612;28;20262;-73
2023/08/25 03:09:58;;;;;;;78.28;40.55;;;20.20;99.90;;;;;;4994670;28;20022;-72
2023/08/25 03:12:24;;;;;;;71.55;38.92;;;20.30;99.90;;;;;;4994644;28;20038;-72
2023/08/25 03:14:50;;;;;;;65.70;37.35;;;20.30;99.90;;;;;;4993708;28;20022;-72
2023/08/25 03:17:17;;;;;;;74.88;40.28;;;20.30;99.90;;;;;;4992400;28;20041;-72
2023/08/25 03:19:43;;;;;;;70.53;38.78;;;20.30;99.90;;;;;;4994359;28;20022;-72
2023/08/25 03:22:08;;;;;;;73.45;39.55;;;20.40;99.90;;;;;;4994100;28;20030;-72
2023/08/25 03:24:34;;;;;;;73.07;39.30;;;20.40;99.90;;;;;;4994073;28;20138;-73
2023/08/25 03:27:00;;;;;;;69.65;37.75;;;20.40;99.90;;;;;;4990634;28;20030;-72
2023/08/25 03:29:25;;;;;;;68.05;37.63;;;20.40;99.90;;;;;;4991584;28;20072;-72
2023/08/25 03:31:52;;;;;;;70.30;38.05;;;20.40;99.90;;;;;;4994132;28;20026;-72
2023/08/25 03:34:18;;;;;;;75.60;39.38;;;20.40;99.90;;;;;;4994355;28;20426;-72
2023/08/25 03:36:45;;;;;;;70.63;38.50;;;20.40;99.90;;;;;;5008966;28;20466;-72
2023/08/25 03:39:11;;;;;;;71.10;39.05;;;20.50;99.90;;;;;;4994354;28;20093;-72
2023/08/25 03:41:36;;;;;;;72.25;41.30;;;20.50;99.90;;;;;;4994042;28;20102;-72
2023/08/25 03:44:02;;;;;;;69.60;38.75;;;20.50;99.90;;;;;;4993672;28;20379;-72
2023/08/25 03:46:28;;;;;;;78.72;40.13;;;20.50;99.90;;;;;;4993350;28;20456;-72
2023/08/25 03:48:53;;;;;;;74.00;40.17;;;20.50;99.90;;;;;;4988690;28;20458;-72
2023/08/25 03:51:19;;;;;;;76.88;40.35;;;20.50;99.90;;;;;;4993582;28;20480;-72
2023/08/25 03:53:45;;;;;;;70.32;40.03;;;20.50;99.90;;;;;;4993401;28;20026;-72
2023/08/25 03:56:11;;;;;;;79.25;40.17;;;20.50;99.90;;;;;;4992895;28;20069;-72
2023/08/25 03:58:36;;;;;;;73.93;40.25;;;20.50;99.90;;;;;;4993795;28;20030;-72
2023/08/25 04:01:03;;;;;;;71.88;40.40;;;20.50;99.90;;;;;;4990824;28;20524;-73
2023/08/25 04:03:28;;;;;;;79.68;42.22;;;20.60;99.90;;;;;;4984831;28;20137;-72
2023/08/25 04:05:54;;;;;;;77.70;41.15;;;20.60;99.90;;;;;;4993510;28;20050;-72
2023/08/25 04:08:20;;;;;;;79.60;41.55;;;20.50;99.90;;;;;;4993445;28;20087;-72
2023/08/25 04:10:47;;;;;;;84.05;44.80;;;20.60;99.90;;;;;;4993878;28;20097;-72
2023/08/25 04:13:13;;;;;;;88.60;46.38;;;20.50;99.90;;;;;;4994276;28;20486;-72
2023/08/25 04:15:39;;;;;;;88.47;47.58;;;20.50;99.90;;;;;;4994280;28;20382;-72
2023/08/25 04:18:05;;;;;;;85.15;46.25;;;20.60;99.90;;;;;;4993543;28;20025;-72
2023/08/25 04:20:31;;;;;;;88.60;47.13;;;20.60;99.90;;;;;;4993205;28;20022;-72
2023/08/25 04:22:57;;;;;;;87.07;46.72;;;20.50;99.90;;;;;;4993029;28;20096;-73
2023/08/25 04:25:23;;;;;;;86.75;46.90;;;20.60;99.90;;;;;;4993433;28;20018;-72
2023/08/25 04:27:48;;;;;;;84.50;47.35;;;20.60;99.90;;;;;;4992171;28;20034;-72
2023/08/25 04:30:14;;;;;;;93.82;48.38;;;20.60;99.90;;;;;;4996424;28;20018;-72
2023/08/25 04:32:40;;;;;;;98.20;51.15;;;20.60;99.90;;;;;;5002870;28;20022;-73
2023/08/25 04:35:06;;;;;;;94.78;50.90;;;20.60;99.90;;;;;;4995352;28;20026;-72
2023/08/25 04:37:31;;;;;;;93.78;48.72;;;20.60;99.90;;;;;;4994477;28;20109;-72
2023/08/25 04:39:57;;;;;;;98.13;50.17;;;20.60;99.90;;;;;;4994916;28;20098;-72
2023/08/25 04:42:23;;;;;;;93.38;48.17;;;20.60;99.90;;;;;;4993520;28;20092;-72
2023/08/25 04:44:49;;;;;;;89.88;48.47;;;20.60;99.90;;;;;;4992252;28;20030;-72
2023/08/25 04:47:16;;;;;;;92.00;49.20;;;20.60;99.90;;;;;;4993161;28;20049;-72
2023/08/25 04:49:43;;;;;;;85.80;48.13;;;20.60;99.90;;;;;;4992556;28;20105;-72
2023/08/25 04:52:08;;;;;;;92.68;48.83;;;20.60;99.90;;;;;;5007388;28;20378;-73
2023/08/25 04:54:34;;;;;;;86.32;48.35;;;20.60;99.90;;;;;;4993448;28;20034;-73
2023/08/25 04:57:00;;;;;;;86.40;47.40;;;20.60;99.90;;;;;;5005148;28;20022;-73
2023/08/25 04:59:26;;;;;;;85.85;46.50;;;20.60;99.90;;;;;;4993894;28;20026;-73
2023/08/25 05:01:51;;;;;;;81.93;45.00;;;20.60;99.90;;;;;;4997610;28;20172;-73
2023/08/25 05:04:17;;;;;;;73.60;43.45;;;20.60;99.90;;;;;;4996608;28;20404;-73
2023/08/25 05:06:43;;;;;;;82.95;44.50;;;20.60;99.90;;;;;;4999109;28;20019;-73
2023/08/25 05:09:09;;;;;;;83.40;43.58;;;20.60;99.90;;;;;;4995811;28;20022;-73
2023/08/25 05:11:35;;;;;;;71.70;40.30;;;20.60;99.90;;;;;;4992437;28;20018;-72
2023/08/25 05:14:01;;;;;;;68.68;37.35;;;20.60;99.90;;;;;;4992623;28;20023;-73
2023/08/25 05:16:26;;;;;;;64.68;34.80;;;20.60;99.90;;;;;;4980912;28;20030;-72
2023/08/25 05:18:52;;;;;;;55.40;30.98;;;20.60;99.90;;;;;;4992899;28;20030;-72
2023/08/25 05:21:17;;;;;;;52.38;28.13;;;20.60;99.90;;;;;;4992388;28;20037;-72
2023/08/25 05:23:48;;;;;;;48.35;26.75;;;20.60;99.90;;;;;;4992553;28;20050;-73
2023/08/25 05:26:14;;;;;;;44.33;24.73;;;20.60;99.90;;;;;;4992460;28;20026;-72
2023/08/25 05:28:40;;;;;;;46.83;25.17;;;20.60;99.90;;;;;;4992269;28;20496;-73
2023/08/25 05:31:05;;;;;;;40.28;23.42;;;20.60;99.90;;;;;;4991186;28;20730;-73
2023/08/25 05:33:31;;;;;;;44.33;21.00;;;20.60;99.90;;;;;;4987047;28;20026;-72
2023/08/25 05:35:57;;;;;;;43.55;20.90;;;20.70;99.90;;;;;;4990934;28;20018;-73
2023/08/25 05:38:22;;;;;;;41.15;21.27;;;20.70;99.90;;;;;;4991764;28;20514;-73
2023/08/25 05:40:48;;;;;;;38.28;21.35;;;20.70;99.90;;;;;;4990270;28;20018;-76
2023/08/25 05:43:13;;;;;;;40.83;22.67;;;20.70;99.90;;;;;;4990887;28;20073;-72
2023/08/25 05:45:39;;;;;;;36.38;21.77;;;20.60;99.90;;;;;;4987237;28;20022;-73
2023/08/25 05:48:05;;;;;;;40.78;22.00;;;20.60;99.90;;;;;;4990588;28;20105;-73
2023/08/25 05:50:31;;;;;;;43.20;23.17;;;20.60;99.90;;;;;;4988737;28;20027;-73
2023/08/25 05:52:56;;;;;;;42.00;23.75;;;20.70;99.90;;;;;;4991029;28;20033;-73
2023/08/25 05:55:23;;;;;;;42.85;24.90;;;20.70;99.90;;;;;;4990141;28;20030;-73
2023/08/25 05:57:49;;;;;;;48.47;26.15;;;20.70;99.90;;;;;;4989687;28;20092;-73
2023/08/25 06:00:15;;;;;;;42.58;27.15;;;20.70;99.90;;;;;;4990373;28;20486;-73
2023/08/25 06:02:41;;;;;;;41.05;26.58;;;20.70;99.90;;;;;;4990678;28;20084;-73
2023/08/25 06:05:07;;;;;;;46.25;27.23;;;20.70;99.90;;;;;;4990713;28;20084;-73
2023/08/25 06:07:32;;;;;;;49.78;28.67;;;20.70;99.90;;;;;;5004637;28;20037;-74
2023/08/25 06:09:58;;;;;;;53.85;29.45;;;20.80;99.90;;;;;;4988113;28;20287;-74
2023/08/25 06:12:24;;;;;;;48.42;28.10;;;20.80;99.90;;;;;;4986045;28;20022;-74
2023/08/25 06:14:52;;;;;;;48.75;30.05;;;20.80;99.90;;;;;;4990941;28;20062;-75
2023/08/25 06:17:18;;;;;;;53.40;32.40;;;20.80;99.90;;;;;;4982002;28;20022;-72
2023/08/25 06:19:43;;;;;;;58.60;34.35;;;20.90;99.90;;;;;;4989160;28;20474;-72
2023/08/25 06:22:11;;;;;;;58.65;33.05;;;20.90;99.90;;;;;;4989950;28;20058;-72
2023/08/25 06:24:36;;;;;;;53.17;33.83;;;20.90;99.90;;;;;;4992767;28;20382;-72
2023/08/25 06:27:02;;;;;;;56.95;33.60;;;20.90;99.90;;;;;;4994197;28;20033;-72
2023/08/25 06:29:29;;;;;;;56.97;32.97;;;20.90;99.90;;;;;;4994477;28;20033;-72
2023/08/25 06:31:56;;;;;;;54.72;33.10;;;20.90;99.90;;;;;;5006187;28;20026;-72
2023/08/25 06:34:22;;;;;;;56.83;33.58;;;21.00;99.90;;;;;;4993468;28;20022;-72
2023/08/25 06:36:47;;;;;;;56.17;32.97;;;21.10;99.90;;;;;;4993581;28;20030;-72
2023/08/25 06:39:14;;;;;;;48.83;30.27;;;21.10;99.90;;;;;;4993764;28;20433;-72
2023/08/25 06:41:40;;;;;;;47.13;30.30;;;21.10;99.90;;;;;;4985622;28;20025;-73
2023/08/25 06:44:06;;;;;;;51.65;29.92;;;21.10;99.90;;;;;;4995081;28;20047;-76
2023/08/25 06:46:33;;;;;;;50.95;29.20;;;21.20;99.90;;;;;;5011514;28;20026;-72
2023/08/25 06:48:58;;;;;;;48.95;28.60;;;21.20;99.90;;;;;;4996945;28;20030;-72
2023/08/25 06:51:24;;;;;;;44.13;26.88;;;21.20;99.90;;;;;;5003508;28;20022;-72
2023/08/25 06:53:50;;;;;;;41.20;25.40;;;21.20;99.90;;;;;;4988167;28;20470;-72
2023/08/25 06:56:15;;;;;;;51.58;28.50;;;21.20;99.90;;;;;;4993301;28;20022;-72
2023/08/25 06:58:41;;;;;;;46.25;26.92;;;21.20;99.90;;;;;;4993778;28;20504;-72
2023/08/25 07:01:08;;;;;;;46.90;29.00;;;21.20;99.90;;;;;;4993048;28;20471;-71
2023/08/25 07:03:34;;;;;;;55.45;29.02;;;21.20;99.90;;;;;;4993353;28;20033;-72
2023/08/25 07:06:00;;;;;;;50.03;28.65;;;21.30;99.90;;;;;;4993348;28;20470;-72
2023/08/25 07:08:26;;;;;;;51.03;29.33;;;21.30;99.90;;;;;;4994695;28;20036;-72
2023/08/25 07:10:51;;;;;;;52.85;30.40;;;21.30;99.90;;;;;;4996407;28;20478;-72
2023/08/25 07:13:17;;;;;;;47.55;29.63;;;21.30;99.90;;;;;;4998014;28;20054;-73
2023/08/25 07:15:43;;;;;;;51.47;29.38;;;21.30;99.90;;;;;;4993997;28;20026;-74
2023/08/25 07:18:09;;;;;;;54.08;29.35;;;21.40;99.90;;;;;;4993154;28;20025;-73
2023/08/25 07:20:35;;;;;;;52.15;30.27;;;21.40;99.90;;;;;;4993070;28;20031;-73
2023/08/25 07:23:00;;;;;;;53.85;29.27;;;21.40;99.90;;;;;;4993135;28;20524;-73
2023/08/25 07:25:26;;;;;;;49.15;29.27;;;21.40;99.90;;;;;;4993166;28;20069;-71
2023/08/25 07:27:52;;;;;;;55.10;29.85;;;21.40;99.90;;;;;;4992488;28;20119;-72
2023/08/25 07:30:17;;;;;;;47.72;28.23;;;21.40;99.90;;;;;;4989634;28;20014;-72
2023/08/25 07:32:43;;;;;;;48.90;27.30;;;21.40;99.90;;;;;;5002410;28;20027;-71
2023/08/25 07:35:09;;;;;;;48.58;28.35;;;21.50;99.90;;;;;;4992521;28;20539;-72
2023/08/25 07:37:37;;;;;;;49.80;27.50;;;21.50;99.90;;;;;;4991181;28;20042;-72
2023/08/25 07:40:05;;;;;;;47.40;25.88;;;21.60;99.90;;;;;;4992897;28;20018;-72
2023/08/25 07:42:31;;;;;;;47.22;26.05;;;21.70;99.90;;;;;;4993282;28;20022;-72
2023/08/25 07:44:56;;;;;;;41.65;23.30;;;21.70;99.90;;;;;;4993117;28;20023;-72
2023/08/25 07:47:22;;;;;;;43.70;24.65;;;21.80;99.90;;;;;;4992590;28;20378;-72
2023/08/25 07:49:48;;;;;;;42.13;22.48;;;21.80;99.90;;;;;;4992883;28;20093;-72
2023/08/25 07:52:13;;;;;;;43.78;23.70;;;21.80;99.90;;;;;;4992285;28;20030;-72
2023/08/25 07:54:39;;;;;;;42.42;24.02;;;21.80;99.90;;;;;;4992679;28;20500;-73
2023/08/25 07:57:05;;;;;;;39.35;22.38;;;21.80;99.90;;;;;;4992511;28;20314;-73
2023/08/25 07:59:31;;;;;;;38.72;22.67;;;21.80;99.90;;;;;;4992446;28;20022;-73
2023/08/25 08:01:56;;;;;;;38.65;21.95;;;21.80;99.90;;;;;;4988389;28;20053;-72
2023/08/25 08:04:22;;;;;;;39.50;21.45;;;22.00;99.90;;;;;;4992432;28;20022;-72
2023/08/25 08:06:49;;;;;;;35.90;20.65;;;21.90;99.90;;;;;;4992361;28;20493;-72
2023/08/25 08:09:14;;;;;;;41.03;21.30;;;22.00;99.90;;;;;;4992493;28;20093;-72
2023/08/25 08:11:40;;;;;;;39.33;21.27;;;22.00;99.90;;;;;;4992390;28;20122;-72
2023/08/25 08:14:06;;;;;;;34.08;20.50;;;22.10;99.90;;;;;;4992515;28;20037;-72
2023/08/25 08:16:32;;;;;;;38.85;19.75;;;22.00;99.90;;;;;;4992745;28;20027;-72
2023/08/25 08:18:58;;;;;;;33.70;18.95;;;22.10;99.90;;;;;;4992217;28;20388;-72
2023/08/25 08:21:24;;;;;;;37.25;18.48;;;22.10;99.90;;;;;;4992524;28;20077;-72
2023/08/25 08:23:49;;;;;;;34.53;17.65;;;22.10;99.90;;;;;;5006773;28;20022;-72
2023/08/25 08:26:15;;;;;;;35.58;18.20;;;22.10;99.90;;;;;;4991745;28;20019;-72
2023/08/25 08:28:40;;;;;;;31.90;17.92;;;22.20;99.90;;;;;;4992471;28;20342;-72
2023/08/25 08:31:06;;;;;;;29.60;17.25;;;22.20;99.90;;;;;;5017681;28;20029;-72
2023/08/25 08:33:32;;;;;;;31.55;17.13;;;22.20;99.90;;;;;;4994655;28;20034;-72
2023/08/25 08:35:58;;;;;;;32.63;16.58;;;22.20;99.90;;;;;;4991224;28;20030;-72
2023/08/25 08:38:24;;;;;;;31.67;16.10;;;22.20;99.90;;;;;;4992123;28;20027;-72
2023/08/25 08:40:50;;;;;;;29.17;15.85;;;22.30;99.90;;;;;;4992302;28;20363;-73
2023/08/25 08:43:18;;;;;;;30.80;16.23;;;22.40;99.90;;;;;;5006946;28;20490;-73
2023/08/25 08:45:51;;;;;;;26.17;14.60;;;22.30;99.90;;;;;;4985912;28;20388;-73
2023/08/25 08:48:19;;;;;;;31.42;15.35;;;22.40;99.90;;;;;;4991327;28;20205;-72
2023/08/25 08:50:46;;;;;;;29.85;14.70;;;22.40;99.90;;;;;;4992072;28;20374;-72
2023/08/25 08:53:14;;;;;;;28.05;15.10;;;22.50;99.90;;;;;;4992057;28;20034;-72
2023/08/25 08:55:40;;;;;;;28.67;14.30;;;22.70;99.90;;;;;;4990999;28;20018;-72
2023/08/25 08:58:05;;;;;;;27.00;14.35;;;22.70;99.90;;;;;;4991792;28;20018;-72
2023/08/25 09:00:32;;;;;;;26.92;14.10;;;22.90;99.90;;;;;;4991074;28;20140;-72
2023/08/25 09:02:58;;;;;;;26.63;13.13;;;23.10;99.90;;;;;;4991355;28;20477;-72
2023/08/25 09:05:27;;;;;;;27.48;13.25;;;23.10;99.90;;;;;;4991098;28;20045;-72
2023/08/25 09:08:00;;;;;;;24.27;12.45;;;23.20;99.90;;;;;;4991128;28;20011;-72
2023/08/25 09:10:26;;;;;;;24.55;12.02;;;23.30;99.90;;;;;;4991270;28;20109;-73
2023/08/25 09:12:52;;;;;;;25.85;12.50;;;23.20;99.90;;;;;;4991421;28;20061;-73
2023/08/25 09:15:29;;;;;;;22.70;11.40;;;23.20;99.90;;;;;;4990945;28;20097;-72
2023/08/25 09:18:20;;;;;;;20.30;10.73;;;23.20;99.90;;;;;;4990993;28;20027;-72
2023/08/25 09:20:46;;;;;;;25.83;11.25;;;23.20;99.90;;;;;;4982879;28;20038;-72
2023/08/25 09:23:12;;;;;;;21.90;11.13;;;23.20;99.90;;;;;;4991124;28;20015;-72
2023/08/25 09:25:41;;;;;;;27.00;11.32;;;23.20;99.90;;;;;;4991218;28;20022;-73
2023/08/25 09:28:06;;;;;;;22.55;11.40;;;23.20;99.90;;;;;;4991193;28;20364;-72
2023/08/25 09:30:33;;;;;;;23.05;11.77;;;23.20;99.90;;;;;;4996765;28;20033;-73
2023/08/25 09:33:15;;;;;;;23.73;11.80;;;23.20;99.90;;;;;;4998563;28;20038;-73
2023/08/25 09:35:41;;;;;;;21.50;10.95;;;23.30;99.90;;;;;;4980203;28;20367;-73
2023/08/25 09:38:07;;;;;;;21.80;12.30;;;23.20;99.90;;;;;;4999290;28;20014;-73
2023/08/25 09:40:35;;;;;;;26.95;12.80;;;23.20;99.90;;;;;;4990437;28;20452;-73
2023/08/25 09:43:04;;;;;;;24.92;12.55;;;23.30;99.90;;;;;;4991295;28;20038;-72
2023/08/25 09:45:31;;;;;;;24.45;12.75;;;23.40;99.90;;;;;;4989423;28;20465;-73
2023/08/25 09:48:10;;;;;;;21.40;12.50;;;23.50;99.90;;;;;;4991197;28;20110;-73
2023/08/25 09:50:44;;;;;;;23.98;12.52;;;23.70;99.90;;;;;;4989070;28;20031;-73
2023/08/25 09:53:13;;;;;;;27.90;12.75;;;23.90;99.90;;;;;;4981342;28;20034;-73
2023/08/25 09:55:39;;;;;;;21.65;12.02;;;24.00;99.90;;;;;;4990527;28;20390;-73
2023/08/25 09:58:09;;;;;;;20.48;12.20;;;24.20;99.90;;;;;;4991097;28;20026;-73
2023/08/25 10:00:37;;;;;;;26.80;12.85;;;24.30;99.90;;;;;;4994776;28;20485;-73
2023/08/25 10:03:11;;;;;;;22.95;12.50;;;24.40;99.90;;;;;;5010495;28;20512;-74
2023/08/25 10:05:38;;;;;;;26.58;13.93;;;24.50;99.90;;;;;;4996274;28;20026;-74
2023/08/25 10:08:09;;;;;;;23.98;12.10;;;24.60;99.90;;;;;;4995354;28;20014;-74
2023/08/25 10:10:36;;;;;;;27.55;13.48;;;24.50;99.90;;;;;;4989188;28;20026;-74
2023/08/25 10:13:06;;;;;;;26.60;14.00;;;24.60;99.90;;;;;;4996338;28;20117;-74
2023/08/25 10:15:33;;;;;;;22.27;13.68;;;24.60;99.90;;;;;;4995276;28;20057;-73
2023/08/25 10:18:06;;;;;;;25.20;14.82;;;24.70;99.90;;;;;;4992886;28;20042;-73
2023/08/25 10:20:35;;;;;;;23.75;13.93;;;24.90;99.90;;;;;;4993307;28;20500;-74
2023/08/25 10:23:04;;;;;;;24.52;13.50;;;25.10;99.90;;;;;;4988657;28;20019;-73
2023/08/25 10:25:30;;;;;;;23.77;13.25;;;25.20;99.90;;;;;;4992387;28;20408;-72
2023/08/25 10:27:59;;;;;;;20.17;12.50;;;25.40;99.90;;;;;;4995422;28;20066;-73
2023/08/25 10:30:26;;;;;;;25.42;12.85;;;25.40;99.90;;;;;;4994816;28;20592;-73
2023/08/25 10:33:11;;;;;;;19.85;11.27;;;25.30;99.90;;;;;;4995113;28;20101;-73
2023/08/25 10:35:44;;;;;;;18.83;10.48;;;25.40;99.90;;;;;;4994744;28;20030;-73
2023/08/25 10:38:27;;;;;;;17.70;9.70;;;25.50;99.90;;;;;;4995153;28;20489;-73
2023/08/25 10:40:57;;;;;;;17.42;10.15;;;25.60;99.90;;;;;;4993518;28;20282;-73
2023/08/25 10:43:27;;;;;;;23.63;12.45;;;25.70;99.90;;;;;;5007200;28;20044;-73
2023/08/25 10:45:53;;;;;;;21.65;11.73;;;25.80;99.90;;;;;;4995181;28;20490;-73
2023/08/25 10:48:21;;;;;;;22.38;10.85;;;25.90;99.90;;;;;;4994989;28;20033;-73
2023/08/25 10:50:51;;;;;;;19.02;9.27;;;26.00;99.90;;;;;;4995020;28;20102;-73
2023/08/25 10:53:43;;;;;;;21.33;10.98;;;26.00;99.90;;;;;;4995684;28;20069;-73
2023/08/25 10:56:21;;;;;;;25.83;12.45;;;25.90;99.90;;;;;;4988995;28;20054;-73
2023/08/25 10:59:05;;;;;;;22.92;13.40;;;25.70;99.90;;;;;;4990128;28;20076;-73
2023/08/25 11:01:36;;;;;;;21.75;12.90;;;25.50;99.90;;;;;;4986834;28;20096;-72
2023/08/25 11:04:11;;;;;;;26.02;14.10;;;25.30;99.90;;;;;;4996254;28;20019;-73
2023/08/25 11:06:43;;;;;;;;;;;25.20;99.90;;;;;;4994188;28;20026;-73
2023/08/25 11:09:18;;;;;;;31.45;14.20;;;25.00;99.90;;;;;;4994875;28;19912;-73
2023/08/25 11:11:47;;;;;;;29.08;14.38;;;24.90;99.90;;;;;;5016212;28;20018;-73
2023/08/25 11:14:13;;;;;;;29.45;14.15;;;24.90;99.90;;;;;;5000911;28;20360;-73
2023/08/25 11:16:42;;;;;;;27.15;13.98;;;24.90;99.90;;;;;;5003068;28;20095;-73
2023/08/25 11:19:13;;;;;;;21.10;12.75;;;24.90;99.90;;;;;;5003721;28;20058;-73
2023/08/25 11:21:39;;;;;;;24.23;13.57;;;24.90;99.90;;;;;;5007883;28;20029;-73
2023/08/25 11:24:05;;;;;;;28.85;15.00;;;24.80;99.90;;;;;;5003070;28;20059;-73
2023/08/25 11:26:34;;;;;;;23.08;14.10;;;24.70;99.90;;;;;;5010887;28;20034;-73
2023/08/25 11:29:01;;;;;;;25.63;14.82;;;24.60;99.90;;;;;;4990965;28;20049;-73
2023/08/25 11:31:29;;;;;;;26.05;16.17;;;24.50;99.90;;;;;;5006514;28;20029;-73
2023/08/25 11:33:55;;;;;;;28.85;15.45;;;24.30;99.90;;;;;;4992869;28;20053;-73
2023/08/25 11:36:24;;;;;;;30.80;16.15;;;24.20;99.90;;;;;;4992813;28;20449;-73
2023/08/25 11:38:51;;;;;;;31.48;15.70;;;24.00;99.90;;;;;;4993351;28;20018;-74
2023/08/25 11:41:17;;;;;;;31.48;15.65;;;23.90;99.90;;;;;;4993604;28;20024;-73
2023/08/25 11:43:46;;;;;;;27.15;15.27;;;23.90;99.90;;;;;;5009533;28;20045;-75
2023/08/25 11:46:13;;;;;;;31.77;14.82;;;23.80;99.90;;;;;;4994164;28;20019;-75
2023/08/25 11:48:39;;;;;;;24.80;14.77;;;23.70;99.90;;;;;;4996564;28;20022;-75
2023/08/25 11:51:05;;;;;;;30.52;15.35;;;23.70;99.90;;;;;;4994898;28;20505;-73
2023/08/25 11:53:31;;;;;;;30.13;15.43;;;23.60;99.90;;;;;;4993791;28;20026;-75
2023/08/25 11:56:05;;;;;;;31.40;15.20;;;23.70;99.90;;;;;;4994575;28;20034;-76
2023/08/25 11:58:34;;;;;;;23.17;14.15;;;23.70;99.90;;;;;;4995335;28;20544;-76
2023/08/25 12:01:11;;;;;;;24.55;14.27;;;23.70;99.90;;;;;;4991799;28;20050;-76
2023/08/25 12:03:38;;;;;;;25.55;13.68;;;23.80;99.90;;;;;;4982121;28;20070;-75
2023/08/25 12:06:09;;;;;;;24.15;13.25;;;23.80;99.90;;;;;;4993587;28;20049;-76
2023/08/25 12:08:37;;;;;;;23.02;12.55;;;23.90;99.90;;;;;;4988447;28;20418;-75
2023/08/25 12:11:06;;;;;;;21.15;11.75;;;24.00;99.90;;;;;;4993366;28;20485;-74
2023/08/25 12:13:35;;;;;;;20.05;12.43;;;24.00;99.90;;;;;;4990648;28;20036;-75
2023/08/25 12:16:03;;;;;;;24.65;12.93;;;24.00;99.90;;;;;;4992816;28;20034;-76
2023/08/25 12:18:37;;;;;;;26.13;12.32;;;23.90;99.90;;;;;;4996714;28;20072;-75
2023/08/25 12:21:04;;;;;;;23.17;11.68;;;23.80;99.90;;;;;;4984064;28;20050;-75
2023/08/25 12:23:40;;;;;;;23.75;12.35;;;23.80;99.90;;;;;;4991680;28;20022;-76
2023/08/25 12:26:09;;;;;;;24.58;13.15;;;23.80;99.90;;;;;;4987425;28;20038;-75
2023/08/25 12:28:35;;;;;;;17.65;10.80;;;23.70;99.90;;;;;;4991709;28;21160;-74